Aviation Digital Data Service (ADDS)

Output produced by METARs form (0701 UTC 04 July 2015)
found at http://aviationweather.gov/adds/metars/
 
KBPT 040520Z 0406/0506 19004KT P6SM SCT021 SCT050 OVC250 
     FM040900 21003KT P6SM VCSH BKN035 BKN220 
     FM041900 18008KT P6SM VCTS BKN035CB BKN220